createdAt,value
2023-04-02T00:01:18.338Z,88.30
2023-04-02T00:04:14.884Z,88.50
2023-04-02T00:07:30.517Z,88.50
2023-04-02T00:10:30.350Z,88.50
2023-04-02T00:13:26.461Z,88.60
2023-04-02T00:16:17.814Z,88.70
2023-04-02T00:19:09.769Z,88.70
2023-04-02T00:21:59.276Z,88.70
2023-04-02T00:24:51.369Z,88.90
2023-04-02T00:27:38.803Z,88.90
2023-04-02T00:30:25.677Z,89.10
2023-04-02T00:33:18.972Z,89.10
2023-04-02T00:36:09.348Z,89.30
2023-04-02T00:38:59.841Z,89.30
2023-04-02T00:41:48.862Z,89.50
2023-04-02T00:44:43.388Z,89.60
2023-04-02T00:47:36.648Z,89.60
2023-04-02T00:50:30.048Z,89.80
2023-04-02T00:53:23.656Z,89.80
2023-04-02T00:56:19.298Z,90.00
2023-04-02T00:59:21.134Z,89.30
2023-04-02T01:02:28.534Z,90.00
2023-04-02T01:05:24.562Z,89.80
2023-04-02T01:08:23.811Z,90.00
2023-04-02T01:11:28.722Z,89.90
2023-04-02T01:14:26.004Z,90.00
2023-04-02T01:17:28.815Z,89.90
2023-04-02T01:20:47.368Z,89.80
2023-04-02T01:23:34.846Z,89.70
2023-04-02T01:26:33.260Z,89.70
2023-04-02T01:29:25.361Z,89.80
2023-04-02T01:32:16.086Z,89.90
2023-04-02T01:35:03.391Z,89.80
2023-04-02T01:37:56.964Z,89.80
2023-04-02T01:40:47.289Z,89.90
2023-04-02T01:43:42.296Z,89.80
2023-04-02T01:46:33.381Z,89.90
2023-04-02T01:49:23.938Z,89.80
2023-04-02T01:52:18.641Z,89.80
2023-04-02T01:55:08.665Z,89.70
2023-04-02T01:57:56.887Z,89.70
2023-04-02T02:00:51.129Z,89.90
2023-04-02T02:03:42.462Z,89.90
2023-04-02T02:06:31.603Z,89.90
2023-04-02T02:09:25.258Z,89.90
2023-04-02T02:12:15.371Z,89.80
2023-04-02T02:15:04.041Z,89.80
2023-04-02T02:17:52.501Z,89.70
2023-04-02T02:20:43.189Z,89.70
2023-04-02T02:23:31.348Z,90.20
2023-04-02T02:26:19.215Z,89.70
2023-04-02T02:29:10.014Z,89.70
2023-04-02T02:31:59.799Z,89.70
2023-04-02T02:34:51.305Z,89.50
2023-04-02T02:37:44.899Z,89.50
2023-04-02T02:40:40.768Z,89.50
2023-04-02T02:43:29.124Z,89.50
2023-04-02T02:46:21.869Z,89.50
2023-04-02T02:49:17.708Z,89.50
2023-04-02T02:52:16.906Z,89.50
2023-04-02T02:55:32.061Z,89.50
2023-04-02T02:58:31.818Z,89.60
2023-04-02T03:01:30.583Z,89.50
2023-04-02T03:04:23.819Z,89.50
2023-04-02T03:07:16.411Z,89.40
2023-04-02T03:10:12.295Z,90.10
2023-04-02T03:13:10.403Z,89.50
2023-04-02T03:16:05.140Z,89.30
2023-04-02T03:18:58.930Z,89.40
2023-04-02T03:21:53.897Z,89.30
2023-04-02T03:24:49.086Z,89.30
2023-04-02T03:27:41.970Z,89.30
2023-04-02T03:30:38.764Z,89.30
2023-04-02T03:33:32.646Z,89.30
2023-04-02T03:36:24.475Z,90.00
2023-04-02T03:39:19.718Z,89.30
2023-04-02T03:42:19.299Z,89.40
2023-04-02T03:45:14.079Z,89.30
2023-04-02T03:48:08.487Z,89.40
2023-04-02T03:51:02.024Z,90.00
2023-04-02T03:53:50.361Z,89.30
2023-04-02T03:56:41.092Z,89.20
2023-04-02T03:59:43.200Z,89.40
2023-04-02T04:02:41.619Z,89.50
2023-04-02T04:05:35.260Z,89.30
2023-04-02T04:08:28.662Z,89.30
2023-04-02T04:11:22.282Z,89.40
2023-04-02T04:14:17.248Z,89.40
2023-04-02T04:17:15.978Z,89.40
2023-04-02T04:20:17.258Z,89.40
2023-04-02T04:23:25.953Z,89.50
2023-04-02T04:26:24.898Z,89.50
2023-04-02T04:29:34.662Z,89.60
2023-04-02T04:32:32.277Z,89.60
2023-04-02T04:35:31.374Z,89.40
2023-04-02T04:38:33.702Z,89.70
2023-04-02T04:41:27.710Z,89.70
2023-04-02T04:44:22.139Z,89.70
2023-04-02T04:47:18.635Z,89.80
2023-04-02T04:50:17.517Z,89.80
2023-04-02T04:53:09.042Z,89.90
2023-04-02T04:56:12.575Z,89.90
2023-04-02T04:59:17.822Z,90.00
2023-04-02T05:02:12.967Z,89.90
2023-04-02T05:05:02.259Z,90.00
2023-04-02T05:07:54.527Z,90.00
2023-04-02T05:10:47.692Z,90.00
2023-04-02T05:13:40.413Z,90.00
2023-04-02T05:16:34.897Z,90.00
2023-04-02T05:19:30.351Z,90.10
2023-04-02T05:22:27.831Z,90.10
2023-04-02T05:25:23.461Z,90.10
2023-04-02T05:28:19.504Z,90.10
2023-04-02T05:31:13.869Z,90.10
2023-04-02T05:34:02.160Z,90.10
2023-04-02T05:36:51.324Z,90.20
2023-04-02T05:39:39.128Z,90.10
2023-04-02T05:42:30.605Z,90.20
2023-04-02T05:45:31.668Z,90.20
2023-04-02T05:48:29.346Z,90.30
2023-04-02T05:51:22.499Z,90.20
2023-04-02T05:54:21.560Z,90.10
2023-04-02T05:57:14.040Z,90.20
2023-04-02T06:00:09.249Z,90.10
2023-04-02T06:03:07.931Z,90.10
2023-04-02T06:06:03.455Z,90.10
2023-04-02T06:08:59.861Z,90.10
2023-04-02T06:11:53.038Z,90.10
2023-04-02T06:14:40.816Z,90.10
2023-04-02T06:17:30.408Z,90.00
2023-04-02T06:20:22.011Z,90.10
2023-04-02T06:23:17.952Z,90.00
2023-04-02T06:26:09.158Z,90.00
2023-04-02T06:29:07.126Z,90.00
2023-04-02T06:31:59.005Z,89.80
2023-04-02T06:34:46.921Z,89.90
2023-04-02T06:37:39.991Z,89.80
2023-04-02T06:40:43.331Z,89.70
2023-04-02T06:43:45.971Z,89.70
2023-04-02T06:46:59.236Z,89.70
2023-04-02T06:49:51.429Z,89.80
2023-04-02T06:52:45.975Z,89.50
2023-04-02T06:55:42.870Z,89.40
2023-04-02T06:58:31.298Z,89.30
2023-04-02T07:01:23.433Z,89.30
2023-04-02T07:04:11.548Z,89.10
2023-04-02T07:07:03.265Z,89.10
2023-04-02T07:09:55.256Z,89.00
2023-04-02T07:12:45.007Z,88.90
2023-04-02T07:15:33.078Z,88.70
2023-04-02T07:18:27.283Z,88.70
2023-04-02T07:21:14.900Z,88.60
2023-04-02T07:24:04.667Z,88.40
2023-04-02T07:26:52.401Z,88.20
2023-04-02T07:29:43.063Z,88.00
2023-04-02T07:32:30.661Z,87.70
2023-04-02T07:35:21.052Z,87.70
2023-04-02T07:38:08.517Z,87.70
2023-04-02T07:40:58.135Z,87.10
2023-04-02T07:43:45.850Z,86.80
2023-04-02T07:46:35.073Z,86.60
2023-04-02T07:49:23.188Z,86.20
2023-04-02T07:52:10.817Z,85.90
2023-04-02T07:54:58.457Z,85.50
2023-04-02T07:57:52.199Z,85.50
2023-04-02T08:00:39.798Z,85.90
2023-04-02T08:03:29.744Z,85.60
2023-04-02T08:06:17.559Z,85.50
2023-04-02T08:09:08.238Z,85.30
2023-04-02T08:11:55.798Z,85.30
2023-04-02T08:14:43.133Z,85.80
2023-04-02T08:17:31.924Z,84.50
2023-04-02T08:20:23.013Z,84.30
2023-04-02T08:23:18.280Z,84.10
2023-04-02T08:26:07.595Z,83.90
2023-04-02T08:28:55.029Z,83.90
2023-04-02T08:31:42.565Z,83.70
2023-04-02T08:34:30.663Z,83.10
2023-04-02T08:37:20.199Z,82.90
2023-04-02T08:40:10.349Z,82.70
2023-04-02T08:43:14.600Z,82.30
2023-04-02T08:46:10.172Z,81.90
2023-04-02T08:49:02.358Z,81.90
2023-04-02T08:51:50.280Z,81.40
2023-04-02T08:54:39.244Z,81.20
2023-04-02T08:57:37.741Z,80.80
2023-04-02T09:00:32.327Z,81.40
2023-04-02T09:03:23.029Z,80.90
2023-04-02T09:06:16.427Z,80.80
2023-04-02T09:09:05.299Z,80.50
2023-04-02T09:11:56.587Z,80.00
2023-04-02T09:14:45.922Z,79.60
2023-04-02T09:17:42.669Z,79.50
2023-04-02T09:20:38.900Z,79.10
2023-04-02T09:23:28.742Z,78.10
2023-04-02T09:26:23.829Z,78.60
2023-04-02T09:29:39.875Z,78.00
2023-04-02T09:32:40.350Z,75.60
2023-04-02T09:35:29.759Z,73.10
2023-04-02T09:38:22.134Z,72.30
2023-04-02T09:41:21.407Z,72.00
2023-04-02T09:44:24.267Z,72.00
2023-04-02T09:47:27.576Z,71.90
2023-04-02T09:50:25.695Z,71.90
2023-04-02T09:53:30.507Z,71.50
2023-04-02T09:56:21.968Z,71.20
2023-04-02T09:59:18.089Z,69.70
2023-04-02T10:02:26.423Z,68.30
2023-04-02T10:05:30.156Z,67.70
2023-04-02T10:08:28.622Z,68.80
2023-04-02T10:11:21.818Z,69.50
2023-04-02T10:14:20.510Z,69.20
2023-04-02T10:17:17.678Z,69.60
2023-04-02T10:20:13.312Z,70.00
2023-04-02T10:23:01.153Z,70.50
2023-04-02T10:25:52.801Z,71.10
2023-04-02T10:28:54.513Z,71.70
2023-04-02T10:31:51.752Z,72.30
2023-04-02T10:34:48.006Z,73.30
2023-04-02T10:38:00.237Z,73.00
2023-04-02T10:40:55.243Z,72.50
2023-04-02T10:44:19.410Z,71.50
2023-04-02T10:47:27.258Z,70.80
2023-04-02T10:50:32.683Z,69.50
2023-04-02T10:53:22.253Z,68.40
2023-04-02T10:56:13.834Z,67.50
2023-04-02T10:59:05.644Z,67.30
2023-04-02T11:01:55.135Z,66.60
2023-04-02T11:04:48.671Z,66.80
2023-04-02T11:07:51.004Z,66.40
2023-04-02T11:10:44.721Z,65.90
2023-04-02T11:13:38.808Z,65.90
2023-04-02T11:16:27.593Z,66.00
2023-04-02T11:19:27.009Z,67.60
2023-04-02T11:22:18.099Z,67.00
2023-04-02T11:25:23.523Z,67.00
2023-04-02T11:28:22.466Z,67.00
2023-04-02T11:31:23.097Z,67.40
2023-04-02T11:34:15.535Z,67.80
2023-04-02T11:37:09.836Z,69.00
2023-04-02T11:40:00.791Z,69.70
2023-04-02T11:42:51.577Z,70.00
2023-04-02T11:46:02.659Z,69.50
2023-04-02T11:48:50.203Z,69.00
2023-04-02T11:52:02.200Z,69.40
2023-04-02T11:55:01.056Z,70.10
2023-04-02T11:57:58.990Z,70.30
2023-04-02T12:01:15.109Z,71.10
2023-04-02T12:04:17.400Z,71.00
2023-04-02T12:07:35.205Z,71.40
2023-04-02T12:10:25.753Z,69.70
2023-04-02T12:13:21.740Z,69.10
2023-04-02T12:16:10.471Z,68.10
2023-04-02T12:19:00.853Z,67.20
2023-04-02T12:21:48.979Z,66.90
2023-04-02T12:24:36.802Z,67.60
2023-04-02T12:27:29.796Z,67.80
2023-04-02T12:30:22.049Z,67.60
2023-04-02T12:33:28.776Z,66.90
2023-04-02T12:36:22.984Z,65.50
2023-04-02T12:39:18.842Z,65.30
2023-04-02T12:42:06.660Z,64.50
2023-04-02T12:44:56.288Z,65.10
2023-04-02T12:47:47.506Z,65.30
2023-04-02T12:50:36.460Z,66.00
2023-04-02T12:53:27.897Z,66.90
2023-04-02T12:56:22.442Z,68.10
2023-04-02T12:59:30.164Z,69.50
2023-04-02T13:02:21.050Z,70.40
2023-04-02T13:05:11.512Z,71.30
2023-04-02T13:07:59.100Z,73.00
2023-04-02T13:10:48.425Z,74.70
2023-04-02T13:13:38.694Z,76.10
2023-04-02T13:16:31.135Z,76.50
2023-04-02T13:19:34.211Z,77.70
2023-04-02T13:22:33.008Z,78.90
2023-04-02T13:25:30.176Z,79.80
2023-04-02T13:28:17.701Z,79.50
2023-04-02T13:31:05.496Z,80.10
2023-04-02T13:33:53.080Z,81.10
2023-04-02T13:36:40.555Z,81.80
2023-04-02T13:39:30.678Z,81.80
2023-04-02T13:42:19.720Z,82.50
2023-04-02T13:45:17.545Z,83.30
2023-04-02T13:48:09.736Z,83.70
2023-04-02T13:50:57.258Z,84.00
2023-04-02T13:53:44.751Z,84.30
2023-04-02T13:56:34.603Z,85.00
2023-04-02T13:59:21.736Z,85.20
2023-04-02T14:02:14.076Z,85.40
2023-04-02T14:05:13.643Z,85.80
2023-04-02T14:08:10.030Z,86.30
2023-04-02T14:11:10.820Z,85.80
2023-04-02T14:14:21.631Z,85.60
2023-04-02T14:17:19.581Z,85.40
2023-04-02T14:20:21.855Z,85.40
2023-04-02T14:23:27.053Z,85.60
2023-04-02T14:26:24.107Z,86.20
2023-04-02T14:29:22.411Z,86.60
2023-04-02T14:32:14.951Z,87.30
2023-04-02T14:35:09.695Z,87.60
2023-04-02T14:38:07.165Z,88.20
2023-04-02T14:41:00.505Z,88.30
2023-04-02T14:43:53.647Z,88.40
2023-04-02T14:46:43.051Z,88.70
2023-04-02T14:49:40.055Z,88.70
2023-04-02T14:52:30.810Z,88.10
2023-04-02T14:55:27.856Z,87.80
2023-04-02T14:58:22.638Z,88.40
2023-04-02T15:01:16.480Z,88.10
2023-04-02T15:04:10.237Z,89.10
2023-04-02T15:07:04.535Z,89.00
2023-04-02T15:10:00.702Z,89.50
2023-04-02T15:12:50.476Z,89.80
2023-04-02T15:15:44.433Z,90.10
2023-04-02T15:18:32.579Z,90.00
2023-04-02T15:21:49.848Z,89.80
2023-04-02T15:24:56.957Z,90.10
2023-04-02T15:27:59.001Z,89.60
2023-04-02T15:30:47.369Z,90.00
2023-04-02T15:33:43.352Z,90.00
2023-04-02T15:36:46.957Z,90.10
2023-04-02T15:39:45.362Z,90.10
2023-04-02T15:42:37.780Z,90.20
2023-04-02T15:45:32.454Z,90.10
2023-04-02T15:48:36.304Z,90.20
2023-04-02T15:51:38.254Z,90.40
2023-04-02T15:54:43.644Z,90.30
2023-04-02T15:57:46.926Z,90.40
2023-04-02T16:00:37.987Z,90.60
2023-04-02T16:03:49.041Z,90.60
2023-04-02T16:06:54.302Z,90.50
2023-04-02T16:09:52.045Z,90.70
2023-04-02T16:12:42.415Z,90.90
2023-04-02T16:15:36.891Z,91.10
2023-04-02T16:18:34.508Z,91.20
2023-04-02T16:21:24.403Z,91.20
2023-04-02T16:24:14.823Z,91.30
2023-04-02T16:27:20.176Z,91.20
2023-04-02T16:30:27.373Z,91.40
2023-04-02T16:33:26.136Z,91.50
2023-04-02T16:36:23.946Z,91.70
2023-04-02T16:39:24.945Z,91.70
2023-04-02T16:42:24.835Z,91.80
2023-04-02T16:45:25.937Z,91.70
2023-04-02T16:48:23.858Z,91.90
2023-04-02T16:51:21.477Z,91.90
2023-04-02T16:54:15.267Z,92.10
2023-04-02T16:57:19.925Z,92.30
2023-04-02T17:00:18.770Z,92.20
2023-04-02T17:03:23.011Z,92.30
2023-04-02T17:06:18.629Z,92.40
2023-04-02T17:09:16.051Z,92.30
2023-04-02T17:12:13.236Z,92.40
2023-04-02T17:15:07.295Z,92.20
2023-04-02T17:17:59.791Z,92.20
2023-04-02T17:20:48.141Z,92.20
2023-04-02T17:23:55.745Z,92.20
2023-04-02T17:26:48.862Z,92.30
2023-04-02T17:29:40.163Z,92.40
2023-04-02T17:32:31.737Z,92.40
2023-04-02T17:35:24.333Z,92.40
2023-04-02T17:38:21.527Z,92.50
2023-04-02T17:41:14.509Z,92.60
2023-04-02T17:44:12.023Z,92.50
2023-04-02T17:47:08.306Z,92.50
2023-04-02T17:50:17.247Z,92.30
2023-04-02T17:53:12.789Z,92.60
2023-04-02T17:56:11.287Z,92.70
2023-04-02T17:59:12.738Z,92.60
2023-04-02T18:02:08.393Z,92.60
2023-04-02T18:05:08.710Z,92.60
2023-04-02T18:08:04.640Z,92.40
2023-04-02T18:11:04.811Z,92.70
2023-04-02T18:14:00.122Z,91.90
2023-04-02T18:16:56.913Z,91.80
2023-04-02T18:19:50.813Z,91.70
2023-04-02T18:22:45.202Z,91.70
2023-04-02T18:25:44.652Z,91.80
2023-04-02T18:28:47.208Z,91.70
2023-04-02T18:31:43.504Z,91.80
2023-04-02T18:34:51.517Z,91.70
2023-04-02T18:37:54.226Z,91.70
2023-04-02T18:40:56.685Z,91.70
2023-04-02T18:43:57.506Z,91.80
2023-04-02T18:46:51.523Z,91.60
2023-04-02T18:49:47.348Z,91.70
2023-04-02T18:52:36.240Z,91.90
2023-04-02T18:55:28.173Z,91.90
2023-04-02T18:58:22.059Z,92.00
2023-04-02T19:01:15.656Z,91.80
2023-04-02T19:04:08.176Z,91.70
2023-04-02T19:07:04.085Z,91.70
2023-04-02T19:09:53.494Z,91.60
2023-04-02T19:12:41.706Z,91.50
2023-04-02T19:15:41.212Z,91.30
2023-04-02T19:18:37.237Z,91.20
2023-04-02T19:21:35.207Z,91.30
2023-04-02T19:24:37.896Z,91.10
2023-04-02T19:27:35.649Z,90.90
2023-04-02T19:30:44.454Z,90.70
2023-04-02T19:33:43.498Z,90.80
2023-04-02T19:36:44.611Z,90.60
2023-04-02T19:39:54.156Z,90.70
2023-04-02T19:42:47.108Z,90.70
2023-04-02T19:45:39.899Z,90.80
2023-04-02T19:48:29.026Z,90.50
2023-04-02T19:51:16.577Z,90.70
2023-04-02T19:54:04.320Z,90.80
2023-04-02T19:56:53.566Z,90.50
2023-04-02T19:59:41.142Z,90.40
2023-04-02T20:02:28.690Z,90.40
2023-04-02T20:05:16.428Z,90.40
2023-04-02T20:08:03.934Z,90.30
2023-04-02T20:10:51.676Z,90.20
2023-04-02T20:13:40.660Z,90.00
2023-04-02T20:16:27.971Z,90.10
2023-04-02T20:19:15.941Z,90.10
2023-04-02T20:22:03.469Z,90.40
2023-04-02T20:24:51.113Z,90.60
2023-04-02T20:27:38.324Z,90.40
2023-04-02T20:30:27.466Z,90.20
2023-04-02T20:33:15.057Z,90.30
2023-04-02T20:36:05.759Z,90.10
2023-04-02T20:38:53.837Z,90.20
2023-04-02T20:41:41.704Z,90.10
2023-04-02T20:44:29.837Z,90.00
2023-04-02T20:47:19.497Z,90.30
2023-04-02T20:50:07.438Z,89.70
2023-04-02T20:52:55.159Z,89.50
2023-04-02T20:55:44.596Z,90.20
2023-04-02T20:58:32.070Z,89.10
2023-04-02T21:01:21.524Z,88.90
2023-04-02T21:04:10.830Z,89.10
2023-04-02T21:06:58.306Z,88.90
2023-04-02T21:09:46.102Z,88.90
2023-04-02T21:12:33.489Z,88.80
2023-04-02T21:15:21.043Z,89.00
2023-04-02T21:18:08.650Z,89.30
2023-04-02T21:21:02.141Z,89.20
2023-04-02T21:23:49.649Z,89.40
2023-04-02T21:26:39.345Z,89.30
2023-04-02T21:29:26.865Z,89.30
2023-04-02T21:32:21.203Z,89.20
2023-04-02T21:35:10.473Z,89.70
2023-04-02T21:37:59.243Z,89.40
2023-04-02T21:40:47.032Z,89.30
2023-04-02T21:43:34.194Z,89.50
2023-04-02T21:46:23.612Z,89.70
2023-04-02T21:49:12.515Z,89.50
2023-04-02T21:52:00.805Z,89.50
2023-04-02T21:54:49.634Z,89.30
2023-04-02T21:57:37.212Z,89.50
2023-04-02T22:00:26.554Z,89.80
2023-04-02T22:03:24.930Z,90.10
2023-04-02T22:06:20.068Z,90.30
2023-04-02T22:09:11.586Z,90.60
2023-04-02T22:12:01.904Z,90.70
2023-04-02T22:14:49.151Z,90.80
2023-04-02T22:17:37.871Z,90.90
2023-04-02T22:20:25.589Z,90.90
2023-04-02T22:23:13.063Z,91.10
2023-04-02T22:26:02.183Z,91.30
2023-04-02T22:28:52.773Z,91.50
2023-04-02T22:31:40.704Z,91.50
2023-04-02T22:34:28.449Z,91.50
2023-04-02T22:37:15.808Z,91.50
2023-04-02T22:40:03.488Z,92.20
2023-04-02T22:42:50.935Z,91.90
2023-04-02T22:45:39.543Z,92.10
2023-04-02T22:48:27.476Z,92.00
2023-04-02T22:51:17.173Z,92.10
2023-04-02T22:54:04.752Z,92.20
2023-04-02T22:56:52.103Z,92.30
2023-04-02T22:59:39.653Z,92.40
2023-04-02T23:02:28.769Z,92.30
2023-04-02T23:05:16.171Z,92.50
2023-04-02T23:08:03.534Z,92.60
2023-04-02T23:10:51.332Z,92.50
2023-04-02T23:13:39.643Z,92.50
2023-04-02T23:16:29.360Z,92.60
2023-04-02T23:19:18.799Z,92.80
2023-04-02T23:22:06.387Z,92.60
2023-04-02T23:24:54.848Z,92.70
2023-04-02T23:27:42.365Z,92.90
2023-04-02T23:30:29.973Z,92.90
2023-04-02T23:33:20.467Z,92.80
2023-04-02T23:36:11.233Z,92.80
2023-04-02T23:39:01.781Z,92.90
2023-04-02T23:41:49.803Z,92.80
2023-04-02T23:44:37.191Z,92.90
2023-04-02T23:47:24.816Z,93.00
2023-04-02T23:50:12.998Z,93.00
2023-04-02T23:53:01.718Z,93.10
2023-04-02T23:55:49.049Z,93.10
2023-04-02T23:58:36.911Z,92.90
